Time;durP1;ratioP1;P1;durP2;ratioP2;P2;SDS_P1;SDS_P2;PMS_P1;PMS_P2;Temp;Humidity;BMP_temperature;BMP_pressure;BME280_temperature;BME280_humidity;BME280_pressure;Samples;Min_cycle;Max_cycle;Signal;HPM_P1;HPM_P2
2022/11/20 00:02:14;;;;;;;;;11.33;9.33;;;;;;;;5075000;27;45625;-78
2022/11/20 00:04:39;;;;;;;;;9.00;9.00;;;;;;;;5074147;27;45773;-80
2022/11/20 00:07:04;;;;;;;;;14.00;12.00;;;;;;;;5093363;27;45944;-78
2022/11/20 00:09:30;;;;;;;;;11.00;10.00;;;;;;;;5093641;27;46633;-82
2022/11/20 00:11:56;;;;;;;;;16.67;14.67;;;;;;;;5082104;27;45489;-78
2022/11/20 00:14:22;;;;;;;;;11.00;9.00;;;;;;;;5092804;27;45787;-79
2022/11/20 00:16:47;;;;;;;;;16.67;11.67;;;;;;;;5075042;27;45561;-80
2022/11/20 00:19:12;;;;;;;;;13.33;12.67;;;;;;;;5071009;27;46442;-79
2022/11/20 00:21:37;;;;;;;;;17.67;14.33;;;;;;;;5093287;27;45733;-78
2022/11/20 00:24:03;;;;;;;;;16.33;13.33;;;;;;;;5090036;27;46039;-79
2022/11/20 00:26:28;;;;;;;;;11.00;8.67;;;;;;;;5089140;27;45588;-80
2022/11/20 00:28:55;;;;;;;;;14.67;13.00;;;;;;;;5106985;27;46418;-79
2022/11/20 00:31:21;;;;;;;;;11.33;10.67;;;;;;;;5071580;28;45489;-78
2022/11/20 00:33:46;;;;;;;;;11.33;9.67;;;;;;;;5074335;27;45759;-77
2022/11/20 00:36:14;;;;;;;;;12.00;9.00;;;;;;;;5070506;28;45694;-77
2022/11/20 00:38:39;;;;;;;;;13.67;10.00;;;;;;;;5075824;27;46879;-79
2022/11/20 00:41:06;;;;;;;;;11.67;10.00;;;;;;;;5095821;27;45417;-78
2022/11/20 00:43:31;;;;;;;;;11.00;9.33;;;;;;;;5076521;27;45772;-77
2022/11/20 00:45:57;;;;;;;;;11.67;10.00;;;;;;;;5094066;27;46745;-79
2022/11/20 00:48:22;;;;;;;;;14.33;10.33;;;;;;;;5092630;27;46029;-75
2022/11/20 00:50:47;;;;;;;;;11.33;10.00;;;;;;;;5088718;27;45472;-76
2022/11/20 00:53:13;;;;;;;;;14.67;13.33;;;;;;;;5072553;27;45507;-77
2022/11/20 00:55:39;;;;;;;;;11.00;7.67;;;;;;;;5095060;27;45537;-76
2022/11/20 00:58:04;;;;;;;;;13.67;11.67;;;;;;;;5078656;27;46467;-79
2022/11/20 01:00:29;;;;;;;;;10.67;9.67;;;;;;;;5078695;27;45790;-78
2022/11/20 01:02:55;;;;;;;;;15.00;9.33;;;;;;;;5096778;27;45498;-76
2022/11/20 01:05:21;;;;;;;;;14.00;11.00;;;;;;;;5094195;27;45464;-76
2022/11/20 01:07:46;;;;;;;;;10.33;8.33;;;;;;;;5096730;27;45831;-76
2022/11/20 01:10:11;;;;;;;;;12.00;12.00;;;;;;;;5095910;27;45805;-75
2022/11/20 01:12:36;;;;;;;;;10.00;10.00;;;;;;;;5078576;27;45372;-76
2022/11/20 01:15:02;;;;;;;;;13.00;10.00;;;;;;;;5096334;27;45445;-75
2022/11/20 01:17:27;;;;;;;;;16.00;12.33;;;;;;;;5095943;27;46398;-77
2022/11/20 01:19:52;;;;;;;;;11.33;8.00;;;;;;;;5095548;27;45394;-76
2022/11/20 01:22:17;;;;;;;;;15.33;10.67;;;;;;;;5094636;27;45322;-75
2022/11/20 01:24:43;;;;;;;;;12.00;9.67;;;;;;;;5096366;27;45703;-75
2022/11/20 01:27:08;;;;;;;;;12.00;12.00;;;;;;;;5096038;27;45503;-76
2022/11/20 01:29:33;;;;;;;;;8.33;6.67;;;;;;;;5105037;27;45471;-76
2022/11/20 01:31:58;;;;;;;;;10.00;8.67;;;;;;;;5077267;27;45472;-75
2022/11/20 01:34:24;;;;;;;;;12.33;10.67;;;;;;;;5096036;27;45672;-76
2022/11/20 01:36:51;;;;;;;;;11.00;9.33;;;;;;;;5089852;27;45216;-76
2022/11/20 01:39:17;;;;;;;;;8.00;8.00;;;;;;;;5096636;27;45548;-77
2022/11/20 01:44:48;;;;;;;;;12.00;12.00;;;;;;;;5084192;27;45441;-79
2022/11/20 01:47:16;;;;;;;;;9.00;8.00;;;;;;;;5082303;27;47109;-76
2022/11/20 01:49:52;;;;;;;;;8.67;8.67;;;;;;;;5096262;27;45682;-76
2022/11/20 01:52:44;;;;;;;;;8.67;7.67;;;;;;;;5093369;27;45476;-77
2022/11/20 01:55:15;;;;;;;;;11.00;8.67;;;;;;;;5098530;27;45581;-77
2022/11/20 01:57:40;;;;;;;;;8.67;7.67;;;;;;;;5100962;27;45604;-75
2022/11/20 02:00:12;;;;;;;;;7.33;7.00;;;;;;;;5081088;27;45418;-76
2022/11/20 02:02:38;;;;;;;;;9.00;6.00;;;;;;;;5100401;27;45375;-77
2022/11/20 02:05:24;;;;;;;;;14.67;9.67;;;;;;;;5100182;27;45730;-76
2022/11/20 02:07:50;;;;;;;;;8.00;8.00;;;;;;;;5059758;27;45728;-75
2022/11/20 02:10:15;;;;;;;;;8.00;7.33;;;;;;;;5096679;27;45505;-75
2022/11/20 02:15:24;;;;;;;;;8.67;6.00;;;;;;;;5088409;27;44730;-76
2022/11/20 02:17:50;;;;;;;;;8.00;6.00;;;;;;;;5095983;27;45629;-76
2022/11/20 02:20:15;;;;;;;;;25.00;20.67;;;;;;;;5097307;27;45630;-78
2022/11/20 02:23:04;;;;;;;;;13.00;11.67;;;;;;;;5067279;27;45825;-78
2022/11/20 02:25:30;;;;;;;;;5.67;5.67;;;;;;;;5083229;27;45505;-78
2022/11/20 02:27:56;;;;;;;;;9.67;9.67;;;;;;;;5094416;27;45538;-79
2022/11/20 02:30:21;;;;;;;;;7.00;6.00;;;;;;;;5096853;27;45369;-77
2022/11/20 02:32:46;;;;;;;;;6.00;6.00;;;;;;;;5096005;27;45503;-78
2022/11/20 02:35:18;;;;;;;;;8.00;6.00;;;;;;;;5077544;27;46258;-77
2022/11/20 02:37:44;;;;;;;;;7.00;5.00;;;;;;;;5077814;27;46911;-78
2022/11/20 02:40:10;;;;;;;;;5.33;5.33;;;;;;;;5096287;27;45795;-79
2022/11/20 02:42:36;;;;;;;;;9.33;7.00;;;;;;;;5101186;27;45433;-77
2022/11/20 02:45:01;;;;;;;;;8.00;8.00;;;;;;;;5104221;27;45357;-79
2022/11/20 02:47:26;;;;;;;;;16.00;11.33;;;;;;;;5099335;27;46728;-78
2022/11/20 02:49:51;;;;;;;;;9.33;8.33;;;;;;;;5096482;27;45282;-78
2022/11/20 02:52:17;;;;;;;;;25.67;19.00;;;;;;;;5096347;27;45445;-78
2022/11/20 02:54:42;;;;;;;;;10.67;7.00;;;;;;;;5109100;27;45438;-77
2022/11/20 02:57:07;;;;;;;;;6.33;5.33;;;;;;;;5097727;27;46696;-76
2022/11/20 02:59:32;;;;;;;;;18.33;14.67;;;;;;;;5066721;27;45403;-78
2022/11/20 03:01:57;;;;;;;;;13.33;9.33;;;;;;;;5093304;27;45384;-78
2022/11/20 03:04:23;;;;;;;;;7.00;5.00;;;;;;;;5098590;27;45282;-78
2022/11/20 03:06:48;;;;;;;;;10.67;8.67;;;;;;;;5083268;27;45667;-78
2022/11/20 03:09:13;;;;;;;;;7.33;5.00;;;;;;;;5098661;27;45619;-78
2022/11/20 03:11:39;;;;;;;;;14.33;8.67;;;;;;;;5118879;27;45630;-79
2022/11/20 03:14:04;;;;;;;;;10.67;8.33;;;;;;;;5097129;27;45308;-78
2022/11/20 03:16:30;;;;;;;;;9.00;6.67;;;;;;;;5097095;27;45550;-78
2022/11/20 03:18:56;;;;;;;;;5.67;5.67;;;;;;;;5099968;27;45816;-78
2022/11/20 03:21:21;;;;;;;;;8.00;6.67;;;;;;;;5080878;27;45605;-79
2022/11/20 03:23:46;;;;;;;;;4.00;4.00;;;;;;;;5089544;27;45593;-81
2022/11/20 03:26:15;;;;;;;;;12.33;8.33;;;;;;;;5079380;27;47717;-79
2022/11/20 03:28:41;;;;;;;;;8.00;6.67;;;;;;;;5095932;27;45888;-77
2022/11/20 03:31:11;;;;;;;;;9.00;5.00;;;;;;;;5088792;27;45952;-78
2022/11/20 03:33:37;;;;;;;;;9.33;6.33;;;;;;;;5094384;27;45364;-79
2022/11/20 03:36:03;;;;;;;;;7.00;5.00;;;;;;;;5099269;27;45450;-77
2022/11/20 03:38:30;;;;;;;;;7.33;6.33;;;;;;;;5093926;27;45358;-77
2022/11/20 03:40:59;;;;;;;;;4.00;4.00;;;;;;;;5079792;27;45310;-77
2022/11/20 03:43:25;;;;;;;;;3.00;3.00;;;;;;;;5084290;27;45405;-77
2022/11/20 03:45:50;;;;;;;;;5.00;4.00;;;;;;;;5092001;27;45431;-78
2022/11/20 03:48:15;;;;;;;;;6.00;6.00;;;;;;;;5099723;27;45339;-78
2022/11/20 03:50:40;;;;;;;;;5.67;4.67;;;;;;;;5097845;27;44711;-77
2022/11/20 03:53:05;;;;;;;;;6.67;5.00;;;;;;;;5096723;27;45585;-77
2022/11/20 03:55:31;;;;;;;;;5.33;3.67;;;;;;;;5087736;27;45385;-78
2022/11/20 03:57:56;;;;;;;;;7.67;5.00;;;;;;;;5114564;27;45608;-78
2022/11/20 04:00:21;;;;;;;;;4.67;4.00;;;;;;;;5079885;27;45355;-77
2022/11/20 04:02:47;;;;;;;;;7.67;6.33;;;;;;;;5101550;27;45386;-78
2022/11/20 04:05:12;;;;;;;;;5.33;5.33;;;;;;;;5095917;27;45386;-78
2022/11/20 04:07:37;;;;;;;;;6.67;5.67;;;;;;;;5079680;27;45499;-77
2022/11/20 04:10:03;;;;;;;;;3.33;3.33;;;;;;;;5082856;27;45409;-78
2022/11/20 04:12:31;;;;;;;;;5.67;5.67;;;;;;;;5105131;27;45900;-77
2022/11/20 04:14:56;;;;;;;;;6.67;5.00;;;;;;;;5113879;27;46617;-78
2022/11/20 04:17:22;;;;;;;;;6.33;5.00;;;;;;;;5099258;27;45417;-76
2022/11/20 04:19:47;;;;;;;;;6.33;5.67;;;;;;;;5097648;27;45358;-77
2022/11/20 04:22:13;;;;;;;;;4.67;4.67;;;;;;;;5098601;27;45771;-76
2022/11/20 04:24:38;;;;;;;;;5.33;5.00;;;;;;;;5099705;27;45527;-75
2022/11/20 04:27:03;;;;;;;;;6.33;6.00;;;;;;;;5110644;27;45373;-77
2022/11/20 04:29:28;;;;;;;;;5.00;5.00;;;;;;;;5099282;27;45274;-76
2022/11/20 04:31:54;;;;;;;;;4.67;3.67;;;;;;;;5102870;27;45299;-78
2022/11/20 04:34:19;;;;;;;;;7.00;4.33;;;;;;;;5094487;27;46279;-77
2022/11/20 04:36:44;;;;;;;;;6.33;5.67;;;;;;;;5094101;27;45598;-77
2022/11/20 04:39:14;;;;;;;;;6.33;6.00;;;;;;;;5090924;27;45373;-78
2022/11/20 04:41:40;;;;;;;;;6.33;5.00;;;;;;;;5079312;27;46336;-78
2022/11/20 04:44:05;;;;;;;;;7.33;6.00;;;;;;;;5079397;27;46346;-78
2022/11/20 04:46:35;;;;;;;;;4.33;4.00;;;;;;;;5092016;27;45749;-77
2022/11/20 04:49:00;;;;;;;;;5.00;5.00;;;;;;;;5104519;27;45694;-76
2022/11/20 04:51:26;;;;;;;;;3.00;3.00;;;;;;;;5112347;27;46122;-78
2022/11/20 04:53:52;;;;;;;;;4.00;3.00;;;;;;;;5104421;27;45429;-77
2022/11/20 04:56:17;;;;;;;;;5.33;5.00;;;;;;;;5078898;27;45461;-77
2022/11/20 04:58:43;;;;;;;;;5.33;5.33;;;;;;;;5089691;27;45452;-78
2022/11/20 05:01:12;;;;;;;;;3.67;3.67;;;;;;;;5102618;27;45616;-78
2022/11/20 05:03:38;;;;;;;;;4.33;4.00;;;;;;;;5093647;27;45427;-78
2022/11/20 05:06:04;;;;;;;;;5.67;5.00;;;;;;;;5085988;27;45302;-78
2022/11/20 05:08:30;;;;;;;;;4.33;4.33;;;;;;;;5098112;27;45242;-78
2022/11/20 05:11:02;;;;;;;;;3.00;3.00;;;;;;;;5086829;27;47163;-78
2022/11/20 05:13:28;;;;;;;;;6.33;3.67;;;;;;;;5092044;27;45349;-77
2022/11/20 05:15:53;;;;;;;;;3.67;3.00;;;;;;;;5070357;27;45335;-77
2022/11/20 05:18:18;;;;;;;;;8.33;3.33;;;;;;;;5070452;27;45521;-78
2022/11/20 05:20:44;;;;;;;;;5.33;4.00;;;;;;;;5090192;27;45688;-77
2022/11/20 05:23:09;;;;;;;;;6.00;3.00;;;;;;;;5096863;27;46033;-77
2022/11/20 05:25:34;;;;;;;;;4.00;3.00;;;;;;;;5099691;27;45393;-78
2022/11/20 05:28:00;;;;;;;;;3.00;3.00;;;;;;;;5095513;27;45443;-80
2022/11/20 05:30:25;;;;;;;;;5.00;4.00;;;;;;;;5066441;27;46253;-82
2022/11/20 05:32:51;;;;;;;;;2.67;2.00;;;;;;;;5098290;27;45959;-81
2022/11/20 05:35:17;;;;;;;;;3.33;3.00;;;;;;;;5076593;27;45480;-78
2022/11/20 05:37:42;;;;;;;;;3.33;3.33;;;;;;;;5098585;27;45462;-78
2022/11/20 05:40:07;;;;;;;;;2.00;2.00;;;;;;;;5097813;27;45557;-78
2022/11/20 05:42:33;;;;;;;;;3.33;3.00;;;;;;;;5109932;27;46114;-78
2022/11/20 05:44:59;;;;;;;;;3.67;3.33;;;;;;;;5096527;27;45898;-78
2022/11/20 05:47:24;;;;;;;;;4.00;2.33;;;;;;;;5096775;27;45448;-78
2022/11/20 05:49:49;;;;;;;;;5.00;3.00;;;;;;;;5096841;27;45559;-76
2022/11/20 05:52:15;;;;;;;;;4.00;2.67;;;;;;;;5089045;27;48156;-78
2022/11/20 05:54:40;;;;;;;;;2.00;2.00;;;;;;;;5096419;27;45579;-76
2022/11/20 05:57:05;;;;;;;;;3.00;3.00;;;;;;;;5095411;27;45826;-77
2022/11/20 05:59:30;;;;;;;;;2.00;2.00;;;;;;;;5098586;27;45526;-79
2022/11/20 06:01:56;;;;;;;;;3.00;1.67;;;;;;;;5074349;27;46898;-77
2022/11/20 06:04:21;;;;;;;;;3.00;3.00;;;;;;;;5079095;27;45828;-78
2022/11/20 06:06:46;;;;;;;;;2.00;2.00;;;;;;;;5078008;27;45647;-76
2022/11/20 06:09:13;;;;;;;;;3.33;2.00;;;;;;;;5096471;27;45328;-79
2022/11/20 06:11:38;;;;;;;;;3.33;2.00;;;;;;;;5096677;27;45358;-78
2022/11/20 06:14:03;;;;;;;;;4.00;2.33;;;;;;;;5091176;27;45480;-78
2022/11/20 06:16:29;;;;;;;;;3.33;3.33;;;;;;;;5096114;27;45416;-79
2022/11/20 06:18:54;;;;;;;;;3.33;3.33;;;;;;;;5097542;27;45339;-77
2022/11/20 06:21:20;;;;;;;;;4.00;4.00;;;;;;;;5096678;27;45516;-78
2022/11/20 06:23:46;;;;;;;;;5.67;4.33;;;;;;;;5096252;27;45401;-79
2022/11/20 06:26:13;;;;;;;;;4.00;3.00;;;;;;;;5075534;27;45506;-77
2022/11/20 06:28:38;;;;;;;;;6.00;4.67;;;;;;;;5097119;27;45520;-76
2022/11/20 06:31:04;;;;;;;;;3.00;3.00;;;;;;;;5086040;27;45940;-78
2022/11/20 06:33:30;;;;;;;;;4.33;4.33;;;;;;;;5082249;27;45506;-79
2022/11/20 06:35:58;;;;;;;;;2.67;2.67;;;;;;;;5094589;27;45424;-78
2022/11/20 06:38:24;;;;;;;;;5.67;5.67;;;;;;;;5100421;27;45888;-79
2022/11/20 06:40:50;;;;;;;;;7.67;4.00;;;;;;;;5110476;27;46306;-78
2022/11/20 06:43:15;;;;;;;;;4.67;3.00;;;;;;;;5100545;27;45423;-78
2022/11/20 06:45:40;;;;;;;;;3.00;1.67;;;;;;;;5064080;27;45347;-78
2022/11/20 06:48:05;;;;;;;;;5.00;4.00;;;;;;;;5098958;27;45316;-78
2022/11/20 06:50:31;;;;;;;;;2.33;2.33;;;;;;;;5100840;27;45381;-78
2022/11/20 06:52:56;;;;;;;;;4.00;4.00;;;;;;;;5099920;27;45810;-78
2022/11/20 06:55:21;;;;;;;;;3.00;3.00;;;;;;;;5099051;27;45622;-78
2022/11/20 06:57:46;;;;;;;;;3.33;3.00;;;;;;;;5091297;27;45431;-78
2022/11/20 07:00:12;;;;;;;;;3.00;3.00;;;;;;;;5093880;27;46386;-78
2022/11/20 07:02:37;;;;;;;;;2.67;2.00;;;;;;;;5090369;27;45457;-78
2022/11/20 07:05:02;;;;;;;;;5.00;3.00;;;;;;;;5100176;27;45611;-78
2022/11/20 07:07:28;;;;;;;;;4.00;4.00;;;;;;;;5098435;27;46764;-79
2022/11/20 07:09:53;;;;;;;;;4.33;3.00;;;;;;;;5095289;27;45950;-79
2022/11/20 07:12:18;;;;;;;;;2.33;2.33;;;;;;;;5095028;27;45569;-80
2022/11/20 07:14:44;;;;;;;;;2.67;2.67;;;;;;;;5094739;27;45819;-79
2022/11/20 07:17:09;;;;;;;;;6.00;3.00;;;;;;;;5095077;27;45758;-80
2022/11/20 07:19:34;;;;;;;;;2.67;2.67;;;;;;;;5091286;27;45505;-79
2022/11/20 07:22:00;;;;;;;;;1.00;1.00;;;;;;;;5089463;27;45744;-83
2022/11/20 07:24:26;;;;;;;;;5.00;3.00;;;;;;;;5097451;27;45367;-81
2022/11/20 07:26:52;;;;;;;;;6.33;4.33;;;;;;;;5093401;27;46177;-78
2022/11/20 07:29:17;;;;;;;;;3.33;2.00;;;;;;;;5093736;27;46114;-79
2022/11/20 07:31:42;;;;;;;;;4.00;2.67;;;;;;;;5082608;27;45576;-79
2022/11/20 07:34:08;;;;;;;;;6.33;2.67;;;;;;;;5083761;27;45326;-77
2022/11/20 07:36:33;;;;;;;;;4.67;2.00;;;;;;;;5089974;27;45374;-74
2022/11/20 07:38:58;;;;;;;;;3.67;2.00;;;;;;;;5085717;27;45835;-78
2022/11/20 07:41:24;;;;;;;;;1.00;1.00;;;;;;;;5091652;27;45532;-79
2022/11/20 07:43:49;;;;;;;;;2.67;2.67;;;;;;;;5086078;27;45748;-81
2022/11/20 07:46:14;;;;;;;;;3.67;2.00;;;;;;;;5085375;27;45934;-76
2022/11/20 07:48:40;;;;;;;;;2.00;2.00;;;;;;;;5090211;27;45886;-80
2022/11/20 07:51:05;;;;;;;;;2.67;2.00;;;;;;;;5098742;27;45588;-80
2022/11/20 07:53:31;;;;;;;;;2.67;2.67;;;;;;;;5102473;27;45480;-80
2022/11/20 07:55:59;;;;;;;;;4.67;2.00;;;;;;;;5088502;27;46012;-78
2022/11/20 07:58:24;;;;;;;;;2.00;2.00;;;;;;;;5091662;27;45453;-81
2022/11/20 08:00:49;;;;;;;;;3.00;3.00;;;;;;;;5089196;27;45600;-81
2022/11/20 08:03:15;;;;;;;;;5.67;3.00;;;;;;;;5090742;27;45693;-81
2022/11/20 08:05:40;;;;;;;;;3.67;2.00;;;;;;;;5096131;27;47257;-80
2022/11/20 08:08:07;;;;;;;;;4.67;2.00;;;;;;;;5078364;27;46178;-78
2022/11/20 08:10:32;;;;;;;;;1.00;1.00;;;;;;;;5089124;27;45593;-80
2022/11/20 08:15:47;;;;;;;;;6.33;3.00;;;;;;;;5096495;27;45887;-80
2022/11/20 08:18:15;;;;;;;;;3.00;3.00;;;;;;;;5102423;27;45573;-81
2022/11/20 08:20:41;;;;;;;;;3.33;2.33;;;;;;;;5101212;27;45375;-80
2022/11/20 08:23:07;;;;;;;;;4.67;3.33;;;;;;;;5101529;27;45414;-81
2022/11/20 08:25:33;;;;;;;;;2.00;2.00;;;;;;;;5092886;27;45518;-81
2022/11/20 08:27:59;;;;;;;;;2.67;2.67;;;;;;;;5100948;27;46273;-79
2022/11/20 08:30:25;;;;;;;;;3.33;3.33;;;;;;;;5098474;27;45412;-81
2022/11/20 08:32:50;;;;;;;;;5.33;3.33;;;;;;;;5100370;27;45480;-82
2022/11/20 08:35:15;;;;;;;;;3.00;3.00;;;;;;;;5100492;27;45519;-80
2022/11/20 08:37:41;;;;;;;;;5.33;3.00;;;;;;;;5086592;27;47018;-79
2022/11/20 08:40:08;;;;;;;;;5.33;3.33;;;;;;;;5099466;27;45963;-81
2022/11/20 08:42:33;;;;;;;;;9.00;5.00;;;;;;;;5100819;27;45810;-82
2022/11/20 08:44:58;;;;;;;;;3.67;3.67;;;;;;;;5103871;27;45373;-81
2022/11/20 08:47:24;;;;;;;;;3.00;3.00;;;;;;;;5090445;27;45867;-81
2022/11/20 08:49:49;;;;;;;;;5.00;5.00;;;;;;;;5085577;27;45583;-79
2022/11/20 08:52:14;;;;;;;;;5.00;5.00;;;;;;;;5083722;27;45445;-77
2022/11/20 08:54:39;;;;;;;;;4.00;3.00;;;;;;;;5081181;27;45767;-80
2022/11/20 08:57:05;;;;;;;;;3.00;3.00;;;;;;;;5080912;27;46710;-80
2022/11/20 08:59:30;;;;;;;;;6.33;5.00;;;;;;;;5084557;27;45881;-77
2022/11/20 09:01:56;;;;;;;;;4.33;4.33;;;;;;;;5094771;27;45528;-78
2022/11/20 09:04:21;;;;;;;;;6.67;4.00;;;;;;;;5086697;27;45700;-78
2022/11/20 09:06:50;;;;;;;;;4.00;4.00;;;;;;;;5086387;27;45473;-80
2022/11/20 09:09:15;;;;;;;;;5.67;4.67;;;;;;;;5079542;27;45800;-79
2022/11/20 09:11:41;;;;;;;;;5.67;5.00;;;;;;;;5077920;27;45536;-80
2022/11/20 09:14:06;;;;;;;;;4.00;4.00;;;;;;;;5082691;27;45511;-81
2022/11/20 09:16:31;;;;;;;;;6.00;6.00;;;;;;;;5077854;27;46556;-78
2022/11/20 09:18:56;;;;;;;;;6.00;5.00;;;;;;;;5082583;27;45988;-77
2022/11/20 09:21:22;;;;;;;;;6.67;4.67;;;;;;;;5083906;27;45867;-77
2022/11/20 09:23:47;;;;;;;;;7.00;5.33;;;;;;;;5090258;27;45692;-79
2022/11/20 09:26:13;;;;;;;;;8.67;6.67;;;;;;;;5085900;27;45813;-78
2022/11/20 09:28:39;;;;;;;;;7.67;6.00;;;;;;;;5087505;27;45621;-79
2022/11/20 09:31:08;;;;;;;;;6.00;6.00;;;;;;;;5086975;27;45820;-80
2022/11/20 09:33:33;;;;;;;;;7.00;7.00;;;;;;;;5089374;27;45493;-78
2022/11/20 09:35:58;;;;;;;;;8.33;7.33;;;;;;;;5091770;27;46699;-78
2022/11/20 09:38:24;;;;;;;;;9.00;7.00;;;;;;;;5089933;27;45350;-79
2022/11/20 09:41:05;;;;;;;;;10.00;6.67;;;;;;;;5084003;27;45729;-78
2022/11/20 09:43:37;;;;;;;;;9.33;7.00;;;;;;;;5082331;27;45833;-79
2022/11/20 09:46:02;;;;;;;;;9.67;7.33;;;;;;;;5086329;27;47027;-80
2022/11/20 09:48:28;;;;;;;;;12.00;9.67;;;;;;;;5078881;27;45913;-80
2022/11/20 09:50:57;;;;;;;;;9.00;7.00;;;;;;;;5084208;27;45668;-78
2022/11/20 09:53:41;;;;;;;;;11.00;9.33;;;;;;;;5082385;27;45841;-80
2022/11/20 09:56:08;;;;;;;;;10.00;8.00;;;;;;;;5085186;27;47150;-78
2022/11/20 09:58:42;;;;;;;;;11.00;10.00;;;;;;;;5083995;27;45634;-78
2022/11/20 10:01:18;;;;;;;;;9.67;9.33;;;;;;;;5075510;27;45851;-79
2022/11/20 10:03:46;;;;;;;;;9.67;7.00;;;;;;;;5083560;27;45409;-79
2022/11/20 10:06:15;;;;;;;;;6.00;5.00;;;;;;;;5078496;27;46618;-79
2022/11/20 10:08:43;;;;;;;;;7.67;7.00;;;;;;;;5078310;27;46298;-79
2022/11/20 10:11:14;;;;;;;;;7.00;2.00;;;;;;;;5076785;27;46163;-83
2022/11/20 10:13:52;;;;;;;;;9.50;7.50;;;;;;;;5080281;27;45874;-77
2022/11/20 10:16:20;;;;;;;;;14.00;11.67;;;;;;;;5091649;27;45685;-79
2022/11/20 10:18:57;;;;;;;;;11.67;11.33;;;;;;;;5080607;27;45573;-77
2022/11/20 10:21:40;;;;;;;;;7.67;7.00;;;;;;;;5086521;27;46007;-79
2022/11/20 10:24:24;;;;;;;;;8.00;7.00;;;;;;;;5094516;27;45329;-80
2022/11/20 10:27:22;;;;;;;;;13.67;10.67;;;;;;;;5046363;27;46418;-77
2022/11/20 10:30:25;;;;;;;;;6.67;6.67;;;;;;;;5040229;27;45900;-79
2022/11/20 10:35:49;;;;;;;;;10.33;9.33;;;;;;;;5016192;27;47349;-79
2022/11/20 10:38:17;;;;;;;;;7.67;6.00;;;;;;;;5089521;27;47831;-77
2022/11/20 10:40:48;;;;;;;;;6.67;6.67;;;;;;;;5093823;27;45797;-79
2022/11/20 10:43:16;;;;;;;;;11.67;9.00;;;;;;;;5091809;27;46973;-79
2022/11/20 10:46:00;;;;;;;;;7.33;7.00;;;;;;;;5087680;27;46515;-79
2022/11/20 10:48:27;;;;;;;;;15.00;11.00;;;;;;;;5093884;27;46420;-79
2022/11/20 10:51:12;;;;;;;;;9.33;8.33;;;;;;;;5095182;27;45505;-79
2022/11/20 10:53:45;;;;;;;;;10.33;8.67;;;;;;;;5090149;27;45897;-79
2022/11/20 10:56:29;;;;;;;;;10.33;8.00;;;;;;;;5092446;27;46833;-78
2022/11/20 10:59:02;;;;;;;;;11.00;8.67;;;;;;;;5093138;27;46203;-79
2022/11/20 11:01:28;;;;;;;;;9.00;8.00;;;;;;;;5087085;27;46145;-78
2022/11/20 11:03:55;;;;;;;;;10.00;10.00;;;;;;;;5089114;27;45869;-79
2022/11/20 11:06:39;;;;;;;;;10.00;8.00;;;;;;;;5098688;27;45904;-79
2022/11/20 11:09:13;;;;;;;;;9.67;7.00;;;;;;;;5073041;27;46893;-80
2022/11/20 11:11:40;;;;;;;;;8.00;8.00;;;;;;;;5086520;27;45920;-81
2022/11/20 11:14:05;;;;;;;;;10.67;7.00;;;;;;;;5085392;27;45904;-79
2022/11/20 11:16:31;;;;;;;;;14.00;9.00;;;;;;;;5091099;27;45719;-76
2022/11/20 11:19:03;;;;;;;;;7.33;7.00;;;;;;;;5080165;27;45834;-79
2022/11/20 11:21:33;;;;;;;;;9.00;8.00;;;;;;;;5086046;27;45687;-81
2022/11/20 11:24:00;;;;;;;;;6.67;5.67;;;;;;;;5080125;27;45583;-80
2022/11/20 11:26:25;;;;;;;;;9.00;6.33;;;;;;;;5090965;27;45749;-79
2022/11/20 11:28:58;;;;;;;;;7.33;5.00;;;;;;;;5080552;27;47215;-80
2022/11/20 11:31:28;;;;;;;;;5.00;5.00;;;;;;;;5082474;27;45678;-80
2022/11/20 11:34:09;;;;;;;;;7.00;5.33;;;;;;;;5086942;27;45700;-80
2022/11/20 11:36:46;;;;;;;;;;;;;;;;;;;;;
2022/11/20 11:39:16;;;;;;;;;3.67;3.67;;;;;;;;5073555;27;75366;-81
2022/11/20 11:41:41;;;;;;;;;5.00;5.00;;;;;;;;5078681;27;45467;-80
2022/11/20 11:47:11;;;;;;;;;5.00;5.00;;;;;;;;5083189;27;45724;-80
2022/11/20 11:49:37;;;;;;;;;5.67;5.33;;;;;;;;5090473;27;46551;-79
2022/11/20 11:52:25;;;;;;;;;7.67;6.33;;;;;;;;5086788;27;45844;-81
2022/11/20 11:54:59;;;;;;;;;4.00;4.00;;;;;;;;5089986;27;45895;-76
2022/11/20 11:58:03;;;;;;;;;;;;;;;;;;;;;
2022/11/20 12:04:12;;;;;;;;;6.67;5.67;;;;;;;;5084444;27;45613;-80
2022/11/20 12:06:46;;;;;;;;;6.00;5.00;;;;;;;;5075600;27;45885;-80
2022/11/20 12:09:28;;;;;;;;;;;;;;;;;;;;;
2022/11/20 12:12:05;;;;;;;;;6.00;5.00;;;;;;;;5041119;28;75989;-80
2022/11/20 12:14:59;;;;;;;;;6.00;6.00;;;;;;;;5102191;27;45611;-80
2022/11/20 12:17:51;;;;;;;;;;;;;;;;;;;;;
2022/11/20 12:20:22;;;;;;;;;3.67;2.00;;;;;;;;5098540;27;74224;-86
2022/11/20 12:23:00;;;;;;;;;5.00;4.67;;;;;;;;5105157;27;45573;-81
2022/11/20 12:25:45;;;;;;;;;5.33;3.33;;;;;;;;5119887;27;45769;-82
2022/11/20 12:28:44;;;;;;;;;5.00;4.00;;;;;;;;5099246;27;45826;-81
2022/11/20 12:31:47;;;;;;;;;3.33;3.33;;;;;;;;5108099;27;45471;-82
2022/11/20 12:34:58;;;;;;;;;;;;;;;;;;;;;
2022/11/20 12:37:45;;;;;;;;;4.00;4.00;;;;;;;;5085740;27;73011;-83
2022/11/20 12:47:34;;;;;;;;;4.33;4.33;;;;;;;;5064794;27;44935;-82
2022/11/20 12:50:49;;;;;;;;;3.00;3.00;;;;;;;;5096453;27;45485;-83
2022/11/20 12:53:47;;;;;;;;;5.00;4.00;;;;;;;;4986096;28;45450;-83
2022/11/20 12:56:15;;;;;;;;;6.33;5.67;;;;;;;;4981072;28;45836;-82
2022/11/20 13:01:50;;;;;;;;;7.33;5.00;;;;;;;;4970612;28;45376;-82
2022/11/20 13:04:28;;;;;;;;;25.33;17.67;;;;;;;;5032418;28;45625;-82
2022/11/20 13:07:18;;;;;;;;;5.00;5.00;;;;;;;;5082356;28;45864;-81
2022/11/20 13:10:05;;;;;;;;;5.00;5.00;;;;;;;;5071511;28;45039;-83
2022/11/20 13:12:45;;;;;;;;;5.67;5.67;;;;;;;;5075849;28;45572;-82
2022/11/20 13:15:16;;;;;;;;;7.33;6.67;;;;;;;;5055195;28;45367;-82
2022/11/20 13:17:50;;;;;;;;;6.00;5.00;;;;;;;;5091496;27;45442;-82
2022/11/20 13:20:17;;;;;;;;;5.00;5.00;;;;;;;;5097911;27;45380;-82
2022/11/20 13:22:59;;;;;;;;;6.00;4.00;;;;;;;;5100648;27;45453;-83
2022/11/20 13:25:39;;;;;;;;;6.67;5.33;;;;;;;;5102141;27;45846;-81
2022/11/20 13:28:18;;;;;;;;;7.00;5.00;;;;;;;;5098140;27;45771;-81
2022/11/20 13:31:01;;;;;;;;;4.67;4.67;;;;;;;;5099856;27;46071;-81
2022/11/20 13:33:40;;;;;;;;;4.00;3.00;;;;;;;;5101547;27;45525;-83
2022/11/20 13:36:25;;;;;;;;;5.33;5.33;;;;;;;;5087426;27;44773;-82
2022/11/20 13:39:14;;;;;;;;;6.67;5.67;;;;;;;;5094357;27;45836;-82
2022/11/20 13:41:57;;;;;;;;;5.00;5.00;;;;;;;;5099616;27;45255;-83
2022/11/20 13:44:25;;;;;;;;;4.67;4.33;;;;;;;;5100595;27;45454;-82
2022/11/20 13:46:50;;;;;;;;;6.67;5.33;;;;;;;;5100873;27;45134;-82
2022/11/20 13:49:33;;;;;;;;;5.00;4.00;;;;;;;;5105343;27;44838;-81
2022/11/20 13:52:04;;;;;;;;;5.00;5.00;;;;;;;;5089254;27;45320;-80
2022/11/20 13:54:51;;;;;;;;;5.33;5.33;;;;;;;;5094795;27;45872;-83
2022/11/20 13:57:20;;;;;;;;;6.33;5.33;;;;;;;;5086934;27;45591;-83
2022/11/20 14:00:07;;;;;;;;;6.33;6.33;;;;;;;;5097238;27;45797;-83
2022/11/20 14:02:32;;;;;;;;;7.33;6.00;;;;;;;;5103596;27;45630;-82
2022/11/20 14:04:59;;;;;;;;;6.67;6.67;;;;;;;;5125733;27;44865;-86
2022/11/20 14:07:45;;;;;;;;;8.67;6.33;;;;;;;;5100994;27;45428;-82
2022/11/20 14:10:24;;;;;;;;;5.00;5.00;;;;;;;;5103666;27;46032;-83
2022/11/20 14:12:53;;;;;;;;;9.33;6.00;;;;;;;;5102934;27;47369;-79
2022/11/20 14:15:24;;;;;;;;;9.00;6.00;;;;;;;;5102919;27;45395;-79
2022/11/20 14:17:49;;;;;;;;;5.00;4.67;;;;;;;;5100077;27;45529;-78
2022/11/20 14:20:15;;;;;;;;;6.00;4.33;;;;;;;;5104886;27;45378;-78
2022/11/20 14:22:48;;;;;;;;;9.00;5.00;;;;;;;;5096878;27;46475;-82
2022/11/20 14:25:16;;;;;;;;;8.00;5.00;;;;;;;;5100844;27;45209;-82
2022/11/20 14:27:43;;;;;;;;;7.00;5.00;;;;;;;;5108348;27;45449;-85
2022/11/20 14:30:19;;;;;;;;;5.33;4.00;;;;;;;;5102628;27;46014;-83
2022/11/20 14:32:49;;;;;;;;;7.33;6.33;;;;;;;;5106834;27;45748;-83
2022/11/20 14:35:29;;;;;;;;;6.00;4.33;;;;;;;;5109078;27;45421;-85
2022/11/20 14:37:55;;;;;;;;;5.67;5.67;;;;;;;;5113470;27;44775;-84
2022/11/20 14:40:26;;;;;;;;;9.00;4.00;;;;;;;;5102698;27;45892;-84
2022/11/20 14:42:51;;;;;;;;;10.00;6.67;;;;;;;;5099443;27;46320;-81
2022/11/20 14:45:17;;;;;;;;;11.33;9.67;;;;;;;;5104635;27;45876;-82
2022/11/20 14:47:42;;;;;;;;;12.00;9.67;;;;;;;;5103933;27;45311;-80
2022/11/20 14:50:15;;;;;;;;;11.33;9.00;;;;;;;;5115662;27;45042;-85
2022/11/20 14:52:49;;;;;;;;;10.67;8.00;;;;;;;;5103577;27;45343;-84
2022/11/20 14:55:35;;;;;;;;;6.00;6.00;;;;;;;;5122514;27;45909;-87
2022/11/20 14:58:06;;;;;;;;;13.33;8.00;;;;;;;;5108691;27;45390;-85
2022/11/20 15:00:33;;;;;;;;;8.33;7.33;;;;;;;;5098721;27;46036;-87
2022/11/20 15:02:59;;;;;;;;;8.67;6.33;;;;;;;;5116597;27;46774;-86
2022/11/20 15:05:44;;;;;;;;;6.00;6.00;;;;;;;;5116463;27;45658;-86
2022/11/20 15:08:16;;;;;;;;;10.00;7.33;;;;;;;;5114752;27;45401;-84
2022/11/20 15:17:28;;;;;;;;;6.33;5.67;;;;;;;;5005329;28;45570;-87
2022/11/20 15:19:57;;;;;;;;;9.33;6.00;;;;;;;;5032047;28;45777;-85
2022/11/20 15:22:29;;;;;;;;;5.00;5.00;;;;;;;;5026063;28;44742;-86
2022/11/20 15:25:03;;;;;;;;;6.67;4.00;;;;;;;;5068458;27;46379;-84
2022/11/20 15:27:29;;;;;;;;;6.67;5.00;;;;;;;;5110994;27;44929;-84
2022/11/20 15:29:55;;;;;;;;;8.33;5.00;;;;;;;;5110421;27;45452;-85
2022/11/20 15:32:29;;;;;;;;;4.00;4.00;;;;;;;;5093999;27;45882;-84